Time;durP1;ratioP1;P1;durP2;ratioP2;P2;SDS_P1;SDS_P2;PMS_P1;PMS_P2;Temp;Humidity;BMP_temperature;BMP_pressure;BME280_temperature;BME280_humidity;BME280_pressure;Samples;Min_cycle;Max_cycle;Signal;HPM_P1;HPM_P2
2022/09/17 00:01:08;;;;;;;11.30;5.93;;;;;;;12.19;100.00;97925.03;4500144;31;20084;-75
2022/09/17 00:03:35;;;;;;;8.57;5.43;;;;;;;12.16;100.00;97930.59;4498423;31;20088;-75
2022/09/17 00:06:08;;;;;;;8.85;5.15;;;;;;;12.14;100.00;97931.75;4486573;31;20171;-75
2022/09/17 00:08:38;;;;;;;13.30;6.07;;;;;;;12.11;100.00;97938.16;4499844;31;20084;-75
2022/09/17 00:11:11;;;;;;;13.70;6.40;;;;;;;12.08;100.00;97935.84;4499666;31;20091;-75
2022/09/17 00:13:38;;;;;;;15.35;6.28;;;;;;;12.12;100.00;97928.50;4500461;31;20132;-75
2022/09/17 00:16:06;;;;;;;10.43;6.72;;;;;;;12.13;100.00;97922.25;4501752;31;20164;-75
2022/09/17 00:18:39;;;;;;;11.12;6.72;;;;;;;12.11;100.00;97925.03;4501851;31;20083;-75
2022/09/17 00:21:15;;;;;;;13.30;7.22;;;;;;;12.09;100.00;97928.81;4502185;31;20081;-75
2022/09/17 00:23:43;;;;;;;12.50;6.60;;;;;;;12.09;100.00;97900.75;4501932;31;20111;-75
2022/09/17 00:26:10;;;;;;;11.12;7.47;;;;;;;12.04;100.00;97908.31;4502002;31;20569;-75
2022/09/17 00:28:37;;;;;;;12.07;8.05;;;;;;;12.05;100.00;97909.94;4501868;31;20104;-75
2022/09/17 00:31:08;;;;;;;12.25;7.47;;;;;;;11.98;100.00;97912.44;4501831;31;20122;-75
2022/09/17 00:33:36;;;;;;;12.88;7.53;;;;;;;12.02;100.00;97907.66;4501642;31;20445;-75
2022/09/17 00:36:04;;;;;;;16.73;7.35;;;;;;;12.01;100.00;97906.03;4501926;31;20524;-75
2022/09/17 00:38:32;;;;;;;14.57;8.07;;;;;;;12.02;100.00;97889.28;4501769;31;20163;-75
2022/09/17 00:41:00;;;;;;;13.00;7.85;;;;;;;12.03;100.00;97883.06;4501820;31;20461;-76
2022/09/17 00:43:36;;;;;;;13.55;7.85;;;;;;;12.02;100.00;97876.16;4501623;31;20096;-75
2022/09/17 00:46:11;;;;;;;12.75;7.95;;;;;;;12.03;100.00;97883.06;4501794;31;20123;-76
2022/09/17 00:48:38;;;;;;;20.37;8.43;;;;;;;12.03;100.00;97872.56;4501655;31;20114;-75
2022/09/17 00:51:08;;;;;;;17.27;7.97;;;;;;;11.98;100.00;97869.63;4501700;31;20095;-75
2022/09/17 00:53:35;;;;;;;13.05;8.27;;;;;;;11.97;100.00;97873.22;4500171;31;20114;-75
2022/09/17 00:56:04;;;;;;;16.27;8.43;;;;;;;12.00;100.00;97871.06;4500417;31;20129;-75
2022/09/17 00:58:33;;;;;;;16.27;8.07;;;;;;;12.04;100.00;97869.75;4500336;31;20470;-75
2022/09/17 01:01:06;;;;;;;17.30;9.57;;;;;;;12.01;100.00;97864.84;4500401;31;20083;-76
2022/09/17 01:03:33;;;;;;;15.70;8.45;;;;;;;11.98;100.00;97865.19;4501385;31;20088;-76
2022/09/17 01:06:06;;;;;;;15.18;8.77;;;;;;;11.97;100.00;97865.34;4487060;31;20108;-76
2022/09/17 01:08:55;;;;;;;16.00;8.20;;;;;;;11.99;100.00;97860.75;4501587;31;20107;-76
2022/09/17 01:11:26;;;;;;;14.50;9.00;;;;;;;12.04;100.00;97863.69;4500299;31;20084;-76
2022/09/17 01:14:19;;;;;;;13.65;8.73;;;;;;;12.02;100.00;97865.66;4500330;31;20537;-76
2022/09/17 01:16:49;;;;;;;15.68;9.05;;;;;;;11.99;100.00;97855.50;4501480;31;20430;-76
2022/09/17 01:19:48;;;;;;;14.07;9.40;;;;;;;12.01;100.00;97874.53;4501558;31;20092;-76
2022/09/17 01:22:15;;;;;;;13.18;8.50;;;;;;;12.01;100.00;97874.53;4501567;31;20083;-76
2022/09/17 01:25:24;;;;;;;14.45;8.30;;;;;;;12.01;100.00;97877.97;4501134;31;20858;-76
2022/09/17 01:28:09;;;;;;;13.05;7.68;;;;;;;12.01;100.00;97883.22;4423868;32;20346;-76
2022/09/17 01:31:00;;;;;;;15.63;8.63;;;;;;;11.96;100.00;97896.03;4436678;32;20110;-75
2022/09/17 01:33:45;;;;;;;17.08;8.68;;;;;;;11.96;100.00;97884.69;4436270;32;20203;-75
2022/09/17 01:36:30;;;;;;;14.13;8.50;;;;;;;11.96;100.00;97889.94;4436447;32;20156;-76
2022/09/17 01:39:35;;;;;;;14.30;8.52;;;;;;;11.95;100.00;97906.72;4436263;32;20132;-76
2022/09/17 01:42:14;;;;;;;14.75;8.48;;;;;;;11.88;100.00;97912.59;4405777;32;20428;-76
2022/09/17 01:45:00;;;;;;;15.93;8.50;;;;;;;11.90;100.00;97913.25;4405731;32;20655;-75
2022/09/17 01:47:37;;;;;;;14.00;8.07;;;;;;;11.87;100.00;97916.19;4405600;32;20491;-75
2022/09/17 01:50:12;;;;;;;12.25;7.62;;;;;;;11.84;100.00;97916.53;4405685;32;20570;-76
2022/09/17 01:52:40;;;;;;;16.10;8.65;;;;;;;11.74;100.00;97910.63;4405764;32;20117;-76
2022/09/17 01:55:12;;;;;;;14.93;7.85;;;;;;;11.80;100.00;97911.78;4405552;32;20082;-76
2022/09/17 01:57:39;;;;;;;14.68;8.65;;;;;;;11.77;100.00;97915.53;4405982;32;20094;-76
2022/09/17 02:00:18;;;;;;;16.45;8.23;;;;;;;11.80;100.00;97911.78;4405489;32;20161;-76
2022/09/17 02:02:49;;;;;;;14.43;8.70;;;;;;;11.79;100.00;97908.31;4446072;32;20601;-76
2022/09/17 02:05:21;;;;;;;13.90;8.07;;;;;;;11.68;100.00;97908.66;4442773;32;20186;-76
2022/09/17 02:07:54;;;;;;;10.77;7.37;;;;;;;11.64;100.00;97904.72;4423434;32;20159;-76
2022/09/17 02:10:24;;;;;;;;;;;;;;;11.61;100.00;97897.19;4436826;32;20156;-76
2022/09/17 02:12:56;;;;;;;12.55;6.93;;;;;;;11.58;100.00;97894.91;4436187;32;19996;-76
2022/09/17 02:15:28;;;;;;;11.40;7.28;;;;;;;11.57;100.00;97893.25;4434772;32;20506;-75
2022/09/17 02:18:14;;;;;;;12.85;7.37;;;;;;;11.54;100.00;97895.22;4485295;31;20084;-76
2022/09/17 02:20:47;;;;;;;11.85;7.25;;;;;;;11.53;100.00;97893.59;4485249;31;20115;-76
2022/09/17 02:23:29;;;;;;;12.43;6.57;;;;;;;11.51;100.00;97892.94;4484036;32;20511;-76
2022/09/17 02:25:59;;;;;;;12.32;6.57;;;;;;;11.47;100.00;97899.50;4485326;31;20088;-76
2022/09/17 02:28:41;;;;;;;12.80;6.87;;;;;;;11.47;100.00;97891.63;4483981;32;20081;-76
2022/09/17 02:31:09;;;;;;;10.20;6.62;;;;;;;11.43;100.00;97892.13;4485125;31;20112;-76
2022/09/17 02:33:37;;;;;;;11.57;7.20;;;;;;;11.44;100.00;97884.09;4483946;32;20867;-76
2022/09/17 02:36:04;;;;;;;11.10;6.95;;;;;;;11.38;100.00;97883.94;4483584;32;20088;-76
2022/09/17 02:38:32;;;;;;;11.63;6.30;;;;;;;11.41;100.00;97879.16;4482721;32;20092;-76
2022/09/17 02:41:27;;;;;;;11.57;6.55;;;;;;;11.39;100.00;97880.34;4485131;31;20759;-76
2022/09/17 02:44:14;;;;;;;15.50;6.22;;;;;;;11.36;100.00;97876.22;4482390;32;20100;-76
2022/09/17 02:47:32;;;;;;;11.32;6.62;;;;;;;11.32;100.00;97867.03;4485182;31;20082;-76
2022/09/17 02:50:05;;;;;;;11.77;6.20;;;;;;;11.34;100.00;97859.84;4435809;32;20165;-76
2022/09/17 02:53:09;;;;;;;13.52;6.12;;;;;;;11.30;100.00;97863.78;4436370;32;20275;-76
2022/09/17 02:55:40;;;;;;;12.05;6.30;;;;;;;11.28;100.00;97860.47;4435837;32;20101;-76
2022/09/17 02:58:25;;;;;;;10.55;6.25;;;;;;;11.33;100.00;97858.19;4435861;32;20178;-76
2022/09/17 03:00:54;;;;;;;9.27;6.12;;;;;;;11.27;100.00;97846.56;4422884;32;20090;-76
2022/09/17 03:03:32;;;;;;;9.68;6.68;;;;;;;11.21;100.00;97846.41;4422970;32;20240;-76
2022/09/17 03:05:59;;;;;;;9.88;6.47;;;;;;;11.24;100.00;97841.66;4435720;32;20131;-76
2022/09/17 03:08:39;;;;;;;8.48;5.68;;;;;;;11.25;100.00;97827.56;4435742;32;20127;-76
2022/09/17 03:11:08;;;;;;;10.65;6.03;;;;;;;11.27;100.00;97830.81;4423147;32;20162;-76
2022/09/17 03:13:35;;;;;;;10.20;6.15;;;;;;;11.18;100.00;97824.75;4435814;32;20114;-76
2022/09/17 03:16:03;;;;;;;9.32;6.03;;;;;;;11.11;100.00;97813.31;4422815;32;20106;-76
2022/09/17 03:18:31;;;;;;;10.45;6.80;;;;;;;11.12;100.00;97806.25;4435837;32;20285;-76
2022/09/17 03:20:58;;;;;;;11.27;5.85;;;;;;;11.04;100.00;97793.97;4435905;32;20142;-76
2022/09/17 03:23:26;;;;;;;8.88;6.12;;;;;;;10.99;100.00;97786.62;4435647;32;20117;-76
2022/09/17 03:25:54;;;;;;;12.85;5.93;;;;;;;10.99;100.00;97783.16;4470840;32;20171;-76
2022/09/17 03:28:21;;;;;;;9.57;5.90;;;;;;;11.04;100.00;97767.78;4484722;31;20147;-76
2022/09/17 03:30:48;;;;;;;11.75;5.65;;;;;;;10.98;100.00;97774.47;4484481;32;20153;-76
2022/09/17 03:33:16;;;;;;;8.55;5.45;;;;;;;10.97;100.00;97770.22;4484458;31;20210;-76
2022/09/17 03:35:44;;;;;;;10.27;5.30;;;;;;;10.90;100.00;97756.16;4484358;31;20470;-76
2022/09/17 03:38:11;;;;;;;9.02;4.87;;;;;;;10.91;100.00;97743.88;4484699;31;20444;-76
2022/09/17 03:40:39;;;;;;;10.77;5.35;;;;;;;10.98;100.00;97755.34;4484656;31;20185;-76
2022/09/17 03:43:06;;;;;;;6.90;4.62;;;;;;;10.91;100.00;97757.78;4484512;31;20567;-76
2022/09/17 03:45:34;;;;;;;8.82;4.22;;;;;;;10.94;100.00;97759.25;4484366;31;20451;-76
2022/09/17 03:48:01;;;;;;;6.65;4.30;;;;;;;10.96;100.00;97760.75;4484446;31;20116;-76
2022/09/17 03:50:28;;;;;;;8.57;4.20;;;;;;;10.90;100.00;97757.94;4484786;32;20092;-76
2022/09/17 03:52:55;;;;;;;7.40;4.10;;;;;;;10.88;100.00;97762.53;4486312;31;20101;-76
2022/09/17 03:55:22;;;;;;;10.27;4.07;;;;;;;10.88;100.00;97768.59;4486412;32;20206;-76
2022/09/17 03:57:50;;;;;;;6.87;3.87;;;;;;;10.85;100.00;97770.72;4486355;31;20117;-76
2022/09/17 04:00:17;;;;;;;6.60;4.62;;;;;;;10.83;100.00;97787.41;4486048;31;20092;-76
2022/09/17 04:02:44;;;;;;;6.12;4.22;;;;;;;10.79;100.00;97786.09;4486281;31;20166;-76
2022/09/17 04:05:11;;;;;;;7.70;3.67;;;;;;;10.87;100.00;97787.09;4494325;31;20126;-76
2022/09/17 04:07:40;;;;;;;10.23;4.20;;;;;;;10.84;100.00;97790.87;4490574;31;20164;-76
2022/09/17 04:10:07;;;;;;;6.82;3.95;;;;;;;10.74;100.00;97798.87;4486183;31;20088;-76
2022/09/17 04:12:35;;;;;;;6.78;3.83;;;;;;;10.75;100.00;97800.53;4485983;31;20152;-76
2022/09/17 04:15:02;;;;;;;5.60;3.40;;;;;;;10.79;100.00;97799.19;4486032;31;20469;-76
2022/09/17 04:17:30;;;;;;;5.95;3.97;;;;;;;10.77;100.00;97782.81;4486028;31;20483;-76
2022/09/17 04:19:57;;;;;;;5.70;4.20;;;;;;;10.70;100.00;97775.78;4486080;31;20566;-76
2022/09/17 04:22:24;;;;;;;5.53;3.80;;;;;;;10.68;100.00;97772.53;4486144;31;20112;-76
2022/09/17 04:24:52;;;;;;;6.10;4.10;;;;;;;10.65;100.00;97765.78;4486422;32;20148;-76
2022/09/17 04:27:19;;;;;;;6.55;3.35;;;;;;;10.69;100.00;97772.34;4486156;31;20143;-76
2022/09/17 04:29:46;;;;;;;6.50;4.15;;;;;;;10.69;100.00;97766.28;4486090;31;20128;-76
2022/09/17 04:32:13;;;;;;;6.82;3.87;;;;;;;10.72;100.00;97773.81;4486055;31;20100;-76
2022/09/17 04:34:40;;;;;;;6.87;3.78;;;;;;;10.68;100.00;97770.72;4485926;31;20097;-76
2022/09/17 04:37:07;;;;;;;5.32;3.60;;;;;;;10.70;100.00;97767.94;4485862;31;20088;-76
2022/09/17 04:39:36;;;;;;;7.30;4.00;;;;;;;10.67;100.00;97755.16;4484844;32;20131;-76
2022/09/17 04:42:03;;;;;;;4.97;3.67;;;;;;;10.68;100.00;97754.19;4485766;31;20157;-76
2022/09/17 04:44:30;;;;;;;6.70;3.58;;;;;;;10.61;100.00;97740.91;4485999;31;20152;-76
2022/09/17 04:46:58;;;;;;;7.85;3.72;;;;;;;10.67;100.00;97745.50;4485917;31;20159;-76
2022/09/17 04:49:28;;;;;;;8.43;4.10;;;;;;;10.62;100.00;97759.06;4486073;32;20114;-76
2022/09/17 04:51:55;;;;;;;5.95;3.70;;;;;;;10.64;100.00;97751.87;4485841;31;20104;-76
2022/09/17 04:54:23;;;;;;;6.05;3.50;;;;;;;10.65;100.00;97742.22;4485882;31;20097;-76
2022/09/17 04:56:50;;;;;;;7.35;4.07;;;;;;;10.56;100.00;97743.19;4485617;31;20087;-76
2022/09/17 04:59:17;;;;;;;5.20;3.58;;;;;;;10.57;100.00;97740.41;4485727;31;20587;-76
2022/09/17 05:01:44;;;;;;;5.90;3.80;;;;;;;10.55;100.00;97733.69;4484831;31;20108;-76
2022/09/17 05:04:11;;;;;;;7.97;3.70;;;;;;;10.58;100.00;97730.75;4487461;31;20179;-76
2022/09/17 05:06:38;;;;;;;6.30;3.83;;;;;;;10.59;100.00;97732.41;4496468;31;20083;-76
2022/09/17 05:09:06;;;;;;;8.68;4.12;;;;;;;10.62;100.00;97743.34;4485718;31;20395;-76
2022/09/17 05:11:33;;;;;;;4.50;3.22;;;;;;;10.65;100.00;97753.50;4485699;31;20089;-76
2022/09/17 05:14:00;;;;;;;5.15;3.55;;;;;;;10.68;100.00;97767.28;4486118;31;20116;-76
2022/09/17 05:16:27;;;;;;;7.60;3.75;;;;;;;10.64;100.00;97762.38;4485398;31;20201;-76
2022/09/17 05:18:56;;;;;;;6.55;3.85;;;;;;;10.66;100.00;97754.34;4486047;32;20135;-76
2022/09/17 05:21:23;;;;;;;6.05;3.80;;;;;;;10.62;100.00;97761.69;4485484;31;20093;-76
2022/09/17 05:23:51;;;;;;;4.87;3.45;;;;;;;10.67;100.00;97776.09;4485786;31;20519;-76
2022/09/17 05:26:18;;;;;;;6.90;3.95;;;;;;;10.67;100.00;97782.16;4485502;31;20114;-76
2022/09/17 05:28:45;;;;;;;6.43;4.10;;;;;;;10.70;100.00;97781.84;4485550;31;20502;-76
2022/09/17 05:31:12;;;;;;;7.50;3.78;;;;;;;10.76;100.00;97796.09;4484309;32;20097;-76
2022/09/17 05:33:39;;;;;;;7.07;3.85;;;;;;;10.70;100.00;97802.78;4485490;32;20107;-76
2022/09/17 05:36:07;;;;;;;10.40;4.00;;;;;;;10.69;100.00;97806.41;4485331;31;20113;-76
2022/09/17 05:38:34;;;;;;;5.60;3.05;;;;;;;10.74;100.00;97801.50;4485715;31;20604;-76
2022/09/17 05:41:05;;;;;;;5.25;3.80;;;;;;;10.72;100.00;97800.84;4485507;31;20489;-76
2022/09/17 05:43:33;;;;;;;7.35;3.78;;;;;;;10.74;100.00;97805.91;4485600;31;20080;-76
2022/09/17 05:46:02;;;;;;;6.15;3.87;;;;;;;10.79;100.00;97806.25;4485552;31;20128;-76
2022/09/17 05:48:29;;;;;;;8.10;3.87;;;;;;;10.74;100.00;97808.53;4485492;31;20159;-76
2022/09/17 05:50:56;;;;;;;6.87;3.87;;;;;;;10.79;100.00;97821.97;4485404;31;20151;-76
2022/09/17 05:53:23;;;;;;;6.57;4.18;;;;;;;10.75;100.00;97810.16;4485523;31;20100;-76
2022/09/17 05:55:55;;;;;;;5.95;3.50;;;;;;;10.82;100.00;97822.47;4485531;31;20151;-76
2022/09/17 05:58:22;;;;;;;4.93;3.47;;;;;;;10.84;100.00;97824.94;4485511;31;20151;-76
2022/09/17 06:00:49;;;;;;;6.75;3.58;;;;;;;10.81;100.00;97831.31;4485447;31;20100;-76
2022/09/17 06:03:19;;;;;;;6.85;4.10;;;;;;;10.76;100.00;97827.53;4485005;32;20478;-76
2022/09/17 06:05:54;;;;;;;5.22;3.40;;;;;;;10.76;100.00;97838.81;4497337;31;20111;-77
2022/09/17 06:08:22;;;;;;;8.68;4.10;;;;;;;10.75;100.00;97839.81;4482710;31;80153;-76
2022/09/17 06:10:49;;;;;;;7.37;3.58;;;;;;;10.72;100.00;97836.69;4485294;31;20105;-76
2022/09/17 06:13:17;;;;;;;7.53;3.25;;;;;;;10.71;100.00;97821.97;4485092;31;20153;-76
2022/09/17 06:15:52;;;;;;;4.62;3.25;;;;;;;10.74;100.00;97813.78;4485056;31;20088;-76
2022/09/17 06:18:19;;;;;;;4.32;2.97;;;;;;;10.77;100.00;97819.50;4485231;31;20094;-76
2022/09/17 06:20:54;;;;;;;4.37;2.92;;;;;;;10.80;100.00;97829.66;4485310;31;20162;-76
2022/09/17 06:23:22;;;;;;;5.68;3.47;;;;;;;10.89;100.00;97835.72;4485219;31;20144;-76
2022/09/17 06:25:59;;;;;;;6.37;3.28;;;;;;;10.96;100.00;97841.12;4483934;32;20540;-76
2022/09/17 06:28:27;;;;;;;6.40;3.65;;;;;;;10.99;100.00;97838.19;4485075;32;20122;-76
2022/09/17 06:30:59;;;;;;;8.10;3.80;;;;;;;11.04;100.00;97829.84;4485468;31;20138;-76
2022/09/17 06:33:26;;;;;;;5.22;3.40;;;;;;;11.03;100.00;97817.72;4484922;32;20084;-76
2022/09/17 06:36:01;;;;;;;6.50;3.35;;;;;;;11.02;100.00;97827.38;4485084;31;20106;-76
2022/09/17 06:38:31;;;;;;;5.22;3.62;;;;;;;11.04;100.00;97832.47;4485190;31;20142;-76
2022/09/17 06:40:58;;;;;;;5.07;3.78;;;;;;;10.97;100.00;97832.31;4484961;31;20122;-76
2022/09/17 06:43:25;;;;;;;5.82;3.28;;;;;;;11.01;100.00;97833.62;4484902;32;20191;-76
2022/09/17 06:45:54;;;;;;;5.18;3.03;;;;;;;10.99;100.00;97844.28;4485114;31;20521;-76
2022/09/17 06:48:21;;;;;;;5.45;3.55;;;;;;;11.08;100.00;97845.09;4485117;31;20093;-76
2022/09/17 06:50:49;;;;;;;5.60;3.12;;;;;;;11.19;100.00;97855.25;4485444;31;20117;-76
2022/09/17 06:53:18;;;;;;;4.90;2.85;;;;;;;11.23;100.00;97860.16;4484883;31;20100;-76
2022/09/17 06:55:46;;;;;;;4.32;3.03;;;;;;;11.22;100.00;97853.28;4484996;31;20100;-76
2022/09/17 06:58:13;;;;;;;5.87;2.92;;;;;;;11.21;100.00;97846.41;4484889;31;20092;-76
2022/09/17 07:00:41;;;;;;;3.92;2.75;;;;;;;11.27;100.00;97858.84;4485049;31;20131;-76
2022/09/17 07:03:08;;;;;;;3.45;2.80;;;;;;;11.30;100.00;97846.22;4484833;31;20111;-76
2022/09/17 07:05:35;;;;;;;6.62;3.30;;;;;;;11.28;100.00;97853.44;4495621;31;20556;-76
2022/09/17 07:08:03;;;;;;;4.20;3.00;;;;;;;11.30;100.00;97848.84;4486519;31;20100;-76
2022/09/17 07:10:30;;;;;;;6.45;3.15;;;;;;;11.39;100.00;97861.97;4484870;31;20081;-76
2022/09/17 07:12:58;;;;;;;4.32;2.83;;;;;;;11.54;100.00;97860.31;4484882;31;20180;-76
2022/09/17 07:15:25;;;;;;;4.85;3.08;;;;;;;11.63;100.00;97842.78;4484482;31;20199;-76
2022/09/17 07:17:52;;;;;;;3.67;2.92;;;;;;;11.68;100.00;97827.34;4484920;32;20135;-76
2022/09/17 07:20:19;;;;;;;7.50;2.87;;;;;;;11.68;100.00;97828.16;4484733;31;20096;-76
2022/09/17 07:22:56;;;;;;;6.87;3.20;;;;;;;11.82;100.00;97824.00;4484153;31;20104;-76
2022/09/17 07:25:25;;;;;;;7.57;2.97;;;;;;;11.92;100.00;97834.34;4484661;31;20080;-76
2022/09/17 07:27:53;;;;;;;5.15;2.65;;;;;;;11.93;100.00;97829.91;4484644;31;20112;-77
2022/09/17 07:30:20;;;;;;;5.03;2.70;;;;;;;12.13;100.00;97841.69;4484487;31;20089;-76
2022/09/17 07:32:47;;;;;;;6.93;2.58;;;;;;;12.21;100.00;97840.81;4484513;31;20102;-77
2022/09/17 07:35:14;;;;;;;3.92;2.87;;;;;;;12.54;100.00;97844.13;4484176;32;20118;-76
2022/09/17 07:37:41;;;;;;;3.65;2.75;;;;;;;12.54;100.00;97844.13;4484743;31;20147;-77
2022/09/17 07:40:08;;;;;;;7.25;2.92;;;;;;;12.57;100.00;97838.50;4484458;31;20184;-77
2022/09/17 07:42:36;;;;;;;3.97;2.80;;;;;;;12.64;100.00;97843.87;4484653;31;20085;-76
2022/09/17 07:45:03;;;;;;;7.53;2.55;;;;;;;12.57;100.00;97846.41;4484398;31;20083;-76
2022/09/17 07:47:31;;;;;;;5.00;2.80;;;;;;;12.53;100.00;97862.69;4484657;31;20093;-76
2022/09/17 07:49:59;;;;;;;7.40;3.08;;;;;;;12.41;100.00;97856.97;4484166;31;20135;-76
2022/09/17 07:52:26;;;;;;;3.40;2.80;;;;;;;12.27;100.00;97852.47;4484334;31;20161;-77
2022/09/17 07:54:53;;;;;;;6.53;2.70;;;;;;;12.28;100.00;97856.72;4484055;31;20145;-76
2022/09/17 07:57:20;;;;;;;5.72;2.95;;;;;;;12.24;100.00;97851.78;4484277;31;20119;-77
2022/09/17 07:59:47;;;;;;;4.87;2.90;;;;;;;12.30;100.00;97860.81;4483931;31;20160;-77
2022/09/17 08:02:15;;;;;;;3.95;2.50;;;;;;;12.29;100.00;97864.41;4484073;31;20147;-77
2022/09/17 08:04:46;;;;;;;4.28;2.62;;;;;;;12.29;100.00;97866.22;4489679;31;20091;-77
2022/09/17 08:07:13;;;;;;;3.72;2.47;;;;;;;12.27;100.00;97870.84;4491031;31;20578;-77
2022/09/17 08:09:40;;;;;;;5.80;2.37;;;;;;;12.16;100.00;97885.97;4483931;31;20122;-77
2022/09/17 08:12:11;;;;;;;4.90;3.15;;;;;;;12.04;100.00;97884.69;4484185;31;20080;-76
2022/09/17 08:14:38;;;;;;;4.75;2.85;;;;;;;12.07;100.00;97887.00;4483824;31;20453;-77
2022/09/17 08:17:08;;;;;;;4.70;2.60;;;;;;;12.00;100.00;97878.12;4483650;32;20123;-76
2022/09/17 08:19:38;;;;;;;6.97;2.67;;;;;;;12.07;100.00;97881.75;4483612;32;20115;-77
2022/09/17 08:22:05;;;;;;;5.65;2.40;;;;;;;12.12;100.00;97896.97;4483898;31;20092;-76
2022/09/17 08:24:32;;;;;;;4.30;2.80;;;;;;;12.21;100.00;97902.03;4483706;31;20140;-77
2022/09/17 08:26:59;;;;;;;4.53;2.58;;;;;;;12.24;100.00;97883.31;4483877;32;20462;-77
2022/09/17 08:29:26;;;;;;;4.00;2.20;;;;;;;12.29;100.00;97892.50;4483572;31;20501;-77
2022/09/17 08:31:59;;;;;;;5.87;2.50;;;;;;;12.34;100.00;97901.50;4483998;31;20438;-77
2022/09/17 08:34:26;;;;;;;3.90;2.37;;;;;;;12.30;100.00;97902.03;4484206;31;20088;-76
2022/09/17 08:36:53;;;;;;;3.12;2.15;;;;;;;12.30;100.00;97894.94;4485950;31;20151;-77
2022/09/17 08:39:20;;;;;;;5.07;3.28;;;;;;;12.28;100.00;97898.72;4486084;31;20151;-77
2022/09/17 08:42:26;;;;;;;4.20;2.30;;;;;;;12.25;100.00;97892.84;4486135;31;20093;-77
2022/09/17 08:44:55;;;;;;;3.20;2.28;;;;;;;12.21;100.00;97874.97;4478841;32;20097;-77
2022/09/17 08:47:35;;;;;;;4.37;2.80;;;;;;;12.19;100.00;97869.88;4486050;31;20113;-76
2022/09/17 08:50:10;;;;;;;3.83;2.60;;;;;;;12.18;100.00;97857.72;4484750;32;20080;-76
2022/09/17 08:52:58;;;;;;;4.72;2.45;;;;;;;12.15;100.00;97858.06;4484889;32;20815;-76
2022/09/17 08:55:44;;;;;;;3.47;2.50;;;;;;;12.24;100.00;97867.56;4486079;31;20092;-76
2022/09/17 08:58:32;;;;;;;5.25;2.72;;;;;;;12.22;100.00;97881.84;4486481;31;20144;-76
2022/09/17 09:01:30;;;;;;;6.00;2.78;;;;;;;12.13;100.00;97878.44;4485983;31;20131;-76
2022/09/17 09:04:35;;;;;;;6.30;2.55;;;;;;;12.01;100.00;97875.34;4485014;31;20088;-77
2022/09/17 09:07:09;;;;;;;4.10;2.80;;;;;;;12.01;100.00;97880.59;4416576;32;20097;-77
2022/09/17 09:09:45;;;;;;;3.22;2.55;;;;;;;11.99;100.00;97876.50;4421388;32;20090;-77
2022/09/17 09:12:25;;;;;;;4.60;2.58;;;;;;;11.98;100.00;97882.75;4421344;32;20420;-77
2022/09/17 09:15:05;;;;;;;4.57;2.60;;;;;;;11.97;100.00;97894.22;4421128;32;20117;-76
2022/09/17 09:17:42;;;;;;;5.93;2.75;;;;;;;11.91;100.00;97879.94;4408412;32;20148;-77
2022/09/17 09:20:28;;;;;;;3.42;2.72;;;;;;;11.86;100.00;97883.06;4408539;32;20144;-77
2022/09/17 09:22:58;;;;;;;4.18;2.58;;;;;;;11.95;100.00;97885.72;4408730;32;20120;-76
2022/09/17 09:25:31;;;;;;;3.75;2.53;;;;;;;12.01;100.00;97883.22;4408761;32;20137;-77
2022/09/17 09:28:04;;;;;;;3.87;2.62;;;;;;;12.10;100.00;97883.19;4408534;32;20140;-77
2022/09/17 09:31:04;;;;;;;4.03;2.63;;;;;;;12.32;100.00;97876.41;4408505;32;20171;-77
2022/09/17 09:33:35;;;;;;;5.68;2.83;;;;;;;12.56;100.00;97894.66;4421015;32;20121;-77
2022/09/17 09:36:07;;;;;;;3.78;2.42;;;;;;;12.65;100.00;97892.03;4420923;32;20624;-77
2022/09/17 09:38:40;;;;;;;3.28;1.92;;;;;;;12.56;100.00;97886.78;4421097;32;20415;-77
2022/09/17 09:41:36;;;;;;;3.05;2.33;;;;;;;12.73;100.00;97894.59;4408354;32;20121;-77
2022/09/17 09:44:08;;;;;;;3.15;2.30;;;;;;;12.84;100.00;97902.09;4386563;32;20533;-77
2022/09/17 09:47:06;;;;;;;4.00;2.30;;;;;;;12.94;100.00;97894.81;4420411;32;20200;-76
2022/09/17 09:49:46;;;;;;;4.40;2.53;;;;;;;12.99;100.00;97886.41;4421048;32;20104;-77
2022/09/17 09:52:39;;;;;;;4.57;2.25;;;;;;;13.21;100.00;97895.28;4420976;32;20460;-76
2022/09/17 09:55:16;;;;;;;3.17;2.08;;;;;;;13.20;100.00;97893.66;4421355;32;20444;-77
2022/09/17 09:57:46;;;;;;;3.92;2.03;;;;;;;13.06;100.00;97904.94;4421006;32;20177;-77
2022/09/17 10:00:29;;;;;;;5.05;2.85;;;;;;;13.12;100.00;97905.03;4408395;32;20161;-77
2022/09/17 10:03:19;;;;;;;3.58;1.98;;;;;;;13.19;99.11;97889.37;4420885;32;20085;-77
2022/09/17 10:06:04;;;;;;;3.40;2.10;;;;;;;13.17;99.13;97891.38;4432545;32;20124;-77
2022/09/17 10:08:34;;;;;;;3.45;2.17;;;;;;;13.02;96.30;97880.81;4393211;32;20566;-77
2022/09/17 10:11:04;;;;;;;1.85;1.50;;;;;;;12.98;98.31;97876.06;4405671;32;20155;-77
2022/09/17 10:13:35;;;;;;;2.65;2.08;;;;;;;13.02;95.55;97872.06;4405725;32;20128;-77
2022/09/17 10:16:24;;;;;;;6.28;2.53;;;;;;;13.26;96.84;97895.59;4405329;32;20464;-77
2022/09/17 10:19:01;;;;;;;4.82;1.87;;;;;;;13.17;95.96;97885.28;4405612;32;20149;-77
2022/09/17 10:21:36;;;;;;;5.93;2.33;;;;;;;13.11;95.93;97869.22;4452190;32;20145;-77
2022/09/17 10:24:16;;;;;;;6.95;2.08;;;;;;;13.08;95.78;97851.19;4485420;31;20092;-77
2022/09/17 10:26:43;;;;;;;4.30;1.80;;;;;;;13.16;93.10;97837.16;4483987;32;20100;-77
2022/09/17 10:29:13;;;;;;;4.30;2.22;;;;;;;13.24;94.08;97831.00;4485182;31;20174;-77
2022/09/17 10:31:54;;;;;;;3.20;1.75;;;;;;;13.28;94.30;97825.19;4484967;31;20513;-77
2022/09/17 10:34:24;;;;;;;2.78;1.77;;;;;;;13.44;93.34;97847.97;4484971;32;20132;-77
2022/09/17 10:36:54;;;;;;;5.87;1.60;;;;;;;13.28;91.22;97843.63;4484907;31;20408;-77
2022/09/17 10:39:52;;;;;;;4.10;2.05;;;;;;;13.16;92.37;97842.41;4485228;31;20108;-77
2022/09/17 10:42:19;;;;;;;4.60;1.52;;;;;;;13.17;91.70;97849.31;4420440;32;20167;-77
2022/09/17 10:44:51;;;;;;;2.78;1.52;;;;;;;13.27;92.80;97841.97;4420615;32;20131;-77
2022/09/17 10:47:35;;;;;;;4.28;1.98;;;;;;;13.17;91.83;97820.38;4420428;32;20148;-77
2022/09/17 10:50:18;;;;;;;6.15;1.73;;;;;;;13.24;92.86;97805.50;4408112;32;20086;-77
2022/09/17 10:52:50;;;;;;;3.08;1.58;;;;;;;13.30;94.89;97791.63;4407840;32;20085;-77
2022/09/17 10:55:47;;;;;;;5.43;2.20;;;;;;;13.32;91.76;97771.25;4420626;32;20148;-77
2022/09/17 10:58:20;;;;;;;1.45;1.15;;;;;;;13.26;89.17;97763.25;4329141;33;20112;-77
2022/09/17 11:01:06;;;;;;;;;;;;;;;13.50;88.45;97770.09;4318887;33;20126;-77
2022/09/17 11:03:52;;;;;;;4.18;1.30;;;;;;;13.35;85.65;97777.16;4330372;33;20011;-77
2022/09/17 11:06:29;;;;;;;1.90;0.90;;;;;;;13.26;84.81;97811.41;4344942;33;20189;-77
2022/09/17 11:09:18;;;;;;;1.80;1.10;;;;;;;13.17;85.31;97822.16;4345133;33;20477;-77
2022/09/17 11:12:06;;;;;;;2.58;0.90;;;;;;;13.01;86.22;97834.47;4345174;33;20131;-77
2022/09/17 11:15:08;;;;;;;3.05;1.20;;;;;;;12.98;85.69;97826.94;4345166;33;20131;-77
2022/09/17 11:18:13;;;;;;;3.08;1.27;;;;;;;13.00;85.51;97822.28;4315355;32;20658;-77
2022/09/17 11:21:08;;;;;;;6.57;1.30;;;;;;;13.05;86.88;97845.44;4374950;32;20149;-77
2022/09/17 11:23:53;;;;;;;3.53;1.20;;;;;;;13.18;86.08;97866.72;4374795;32;20118;-77
2022/09/17 11:26:31;;;;;;;3.85;0.93;;;;;;;13.12;84.32;97872.66;4374809;32;20102;-77
2022/09/17 11:29:17;;;;;;;3.40;1.02;;;;;;;13.16;84.24;97879.22;4374662;32;20110;-77
2022/09/17 11:32:16;;;;;;;2.70;1.25;;;;;;;13.17;82.15;97848.47;4374621;32;20534;-77
2022/09/17 11:34:44;;;;;;;6.40;1.20;;;;;;;13.23;82.61;97840.72;4406449;32;20872;-78
2022/09/17 11:37:18;;;;;;;3.20;1.17;;;;;;;13.41;82.04;97850.91;4450753;32;20470;-77
2022/09/17 11:39:58;;;;;;;3.30;0.95;;;;;;;13.45;80.17;97856.66;4438228;32;20156;-77
2022/09/17 11:42:50;;;;;;;5.55;1.15;;;;;;;13.46;79.28;97842.53;4450800;32;20171;-77
2022/09/17 11:45:20;;;;;;;2.53;1.08;;;;;;;13.53;76.57;97838.16;4438063;32;20128;-77
2022/09/17 11:47:59;;;;;;;5.12;1.35;;;;;;;13.44;79.21;97821.66;4437733;32;20122;-77
2022/09/17 11:50:34;;;;;;;1.87;0.80;;;;;;;13.73;77.26;97806.06;4437987;32;20175;-77
2022/09/17 11:53:31;;;;;;;2.75;1.33;;;;;;;13.46;76.85;97800.44;4437792;32;20109;-77